Time;durP1;ratioP1;P1;durP2;ratioP2;P2;SDS_P1;SDS_P2;PMS_P1;PMS_P2;Temp;Humidity;BMP_temperature;BMP_pressure;BME280_temperature;BME280_humidity;BME280_pressure;Samples;Min_cycle;Max_cycle;Signal;HPM_P1;HPM_P2
2022/03/22 00:00:38;;;;;;;22.38;11.73;;;;;;;;;;5079711;28;20115;-76
2022/03/22 00:03:04;;;;;;;23.92;11.70;;;;;;;;;;5076079;28;20107;-75
2022/03/22 00:05:31;;;;;;;26.23;12.02;;;;;;;;;;5086687;27;20024;-76
2022/03/22 00:07:57;;;;;;;20.38;11.82;;;;;;;;;;5076710;28;20398;-75
2022/03/22 00:10:23;;;;;;;21.25;11.48;;;;;;;;;;5078952;28;20040;-75
2022/03/22 00:12:49;;;;;;;23.08;11.82;;;;;;;;;;5083591;28;20035;-75
2022/03/22 00:15:16;;;;;;;21.92;11.02;;;;;;;;;;5088864;28;20032;-75
2022/03/22 00:17:43;;;;;;;21.55;11.38;;;;;;;;;;5085940;28;20469;-75
2022/03/22 00:20:10;;;;;;;20.88;12.10;;;;;;;;;;5081479;28;20024;-76
2022/03/22 00:22:36;;;;;;;25.35;12.52;;;;;;;;;;5073652;28;20048;-75
2022/03/22 00:25:02;;;;;;;23.15;12.77;;;;;;;;;;5075316;28;20526;-75
2022/03/22 00:27:50;;;;;;;20.63;11.68;;;;;;;;;;5085868;28;20070;-75
2022/03/22 00:30:14;;;;;;;22.63;12.20;;;;;;;;;;5080414;28;20037;-75
2022/03/22 00:32:40;;;;;;;22.02;11.65;;;;;;;;;;5090234;28;20023;-75
2022/03/22 00:35:06;;;;;;;22.80;12.30;;;;;;;;;;5075419;28;20028;-75
2022/03/22 00:37:34;;;;;;;23.35;11.93;;;;;;;;;;5079509;28;20028;-75
2022/03/22 00:40:02;;;;;;;26.40;12.75;;;;;;;;;;5090073;28;20036;-75
2022/03/22 00:42:28;;;;;;;23.20;12.35;;;;;;;;;;5088950;28;20602;-75
2022/03/22 00:44:55;;;;;;;25.95;13.60;;;;;;;;;;5089964;28;20028;-76
2022/03/22 00:47:21;;;;;;;27.88;13.30;;;;;;;;;;5081126;28;20032;-76
2022/03/22 00:49:46;;;;;;;25.65;13.85;;;;;;;;;;5085612;28;20036;-76
2022/03/22 00:52:12;;;;;;;28.92;14.20;;;;;;;;;;5079133;28;20028;-75
2022/03/22 00:54:38;;;;;;;28.13;15.15;;;;;;;;;;5086640;28;20027;-76
2022/03/22 00:57:04;;;;;;;27.02;14.38;;;;;;;;;;5078130;28;20035;-76
2022/03/22 01:02:15;;;;;;;28.27;14.75;;;;;;;;;;5089140;28;20153;-76
2022/03/22 01:04:43;;;;;;;29.33;15.38;;;;;;;;;;5075428;28;20057;-75
2022/03/22 01:07:08;;;;;;;30.95;15.63;;;;;;;;;;5089405;28;20044;-76
2022/03/22 01:09:34;;;;;;;36.22;15.63;;;;;;;;;;5079391;28;20035;-76
2022/03/22 01:12:00;;;;;;;28.50;15.95;;;;;;;;;;5078600;28;20024;-75
2022/03/22 01:14:28;;;;;;;34.28;15.65;;;;;;;;;;5087162;28;20463;-76
2022/03/22 01:16:54;;;;;;;30.75;15.82;;;;;;;;;;5076145;28;20078;-76
2022/03/22 01:19:21;;;;;;;31.60;15.70;;;;;;;;;;5079503;28;20169;-75
2022/03/22 01:21:47;;;;;;;36.65;18.08;;;;;;;;;;5085231;28;20032;-76
2022/03/22 01:24:13;;;;;;;36.45;17.42;;;;;;;;;;5072186;28;20047;-75
2022/03/22 01:26:40;;;;;;;33.13;16.95;;;;;;;;;;5078799;28;20474;-75
2022/03/22 01:29:06;;;;;;;34.45;17.63;;;;;;;;;;5082591;28;20039;-75
2022/03/22 01:31:32;;;;;;;37.33;17.45;;;;;;;;;;5078789;28;20024;-75
2022/03/22 01:33:58;;;;;;;36.33;17.42;;;;;;;;;;5083287;28;20474;-75
2022/03/22 01:36:24;;;;;;;32.33;17.70;;;;;;;;;;5086019;28;20024;-74
2022/03/22 01:38:50;;;;;;;33.05;16.83;;;;;;;;;;5071412;28;20033;-74
2022/03/22 01:41:17;;;;;;;36.17;16.80;;;;;;;;;;5080982;28;20032;-74
2022/03/22 01:43:42;;;;;;;34.63;17.65;;;;;;;;;;5082436;28;20021;-74
2022/03/22 01:46:08;;;;;;;32.28;16.10;;;;;;;;;;5081672;28;20027;-74
2022/03/22 01:48:35;;;;;;;34.22;17.00;;;;;;;;;;5089969;28;20444;-74
2022/03/22 01:51:01;;;;;;;33.00;17.42;;;;;;;;;;5082837;28;20032;-74
2022/03/22 01:53:28;;;;;;;31.15;16.52;;;;;;;;;;5078416;28;20089;-75
2022/03/22 01:55:54;;;;;;;31.50;16.85;;;;;;;;;;5083750;28;20028;-74
2022/03/22 01:58:20;;;;;;;31.98;16.45;;;;;;;;;;5080992;28;20089;-74
2022/03/22 02:00:46;;;;;;;30.40;16.40;;;;;;;;;;5083086;28;20032;-74
2022/03/22 02:05:59;;;;;;;32.00;16.60;;;;;;;;;;5085211;28;20035;-74
2022/03/22 02:08:26;;;;;;;32.15;16.70;;;;;;;;;;5079258;28;20453;-74
2022/03/22 02:10:52;;;;;;;32.75;17.17;;;;;;;;;;5076541;28;20387;-74
2022/03/22 02:13:18;;;;;;;35.45;17.67;;;;;;;;;;5088731;28;20028;-74
2022/03/22 02:15:46;;;;;;;39.58;18.50;;;;;;;;;;5075589;28;20024;-74
2022/03/22 02:18:12;;;;;;;32.80;17.65;;;;;;;;;;5075687;28;20071;-74
2022/03/22 02:20:38;;;;;;;38.35;17.27;;;;;;;;;;5075738;28;20044;-75
2022/03/22 02:23:06;;;;;;;31.40;16.95;;;;;;;;;;5080660;28;20073;-74
2022/03/22 02:25:35;;;;;;;34.40;16.98;;;;;;;;;;5082253;28;20536;-74
2022/03/22 02:28:01;;;;;;;34.78;17.08;;;;;;;;;;5088808;28;20103;-74
2022/03/22 02:30:26;;;;;;;30.48;16.50;;;;;;;;;;5087373;28;20131;-74
2022/03/22 02:32:54;;;;;;;33.90;17.08;;;;;;;;;;5092081;28;20058;-74
2022/03/22 02:35:20;;;;;;;32.42;16.77;;;;;;;;;;5085064;28;20039;-73
2022/03/22 02:37:46;;;;;;;31.70;16.20;;;;;;;;;;5085695;28;20510;-74
2022/03/22 02:40:13;;;;;;;29.17;16.35;;;;;;;;;;5082913;28;20060;-75
2022/03/22 02:42:42;;;;;;;33.80;16.98;;;;;;;;;;5085812;28;20031;-74
2022/03/22 02:45:09;;;;;;;28.85;17.48;;;;;;;;;;5087448;28;20645;-74
2022/03/22 02:47:35;;;;;;;33.85;17.35;;;;;;;;;;5084172;28;20406;-74
2022/03/22 02:50:01;;;;;;;31.65;16.90;;;;;;;;;;5085967;28;20489;-74
2022/03/22 02:52:27;;;;;;;32.38;16.98;;;;;;;;;;5080558;28;20024;-74
2022/03/22 02:54:53;;;;;;;30.23;16.83;;;;;;;;;;5086570;28;20024;-74
2022/03/22 02:57:19;;;;;;;31.67;16.17;;;;;;;;;;5091374;28;20035;-74
2022/03/22 02:59:45;;;;;;;29.42;16.05;;;;;;;;;;5080555;28;20857;-74
2022/03/22 03:02:11;;;;;;;36.22;17.58;;;;;;;;;;5084240;28;20024;-74
2022/03/22 03:04:37;;;;;;;32.75;16.25;;;;;;;;;;5087899;28;20529;-74
2022/03/22 03:07:03;;;;;;;31.40;16.15;;;;;;;;;;5089703;28;20611;-74
2022/03/22 03:09:28;;;;;;;32.67;16.75;;;;;;;;;;5076061;28;20459;-74
2022/03/22 03:11:54;;;;;;;33.58;16.95;;;;;;;;;;5077059;28;20378;-74
2022/03/22 03:14:39;;;;;;;34.65;16.13;;;;;;;;;;5088415;28;20023;-74
2022/03/22 03:17:05;;;;;;;32.40;17.05;;;;;;;;;;5078611;28;20020;-74
2022/03/22 03:19:31;;;;;;;32.22;16.67;;;;;;;;;;5084919;28;20476;-74
2022/03/22 03:21:58;;;;;;;31.52;16.40;;;;;;;;;;5085905;28;20032;-74
2022/03/22 03:24:24;;;;;;;30.65;16.15;;;;;;;;;;5086376;28;20024;-74
2022/03/22 03:26:50;;;;;;;34.83;15.95;;;;;;;;;;5075973;28;20020;-74
2022/03/22 03:29:16;;;;;;;31.88;16.63;;;;;;;;;;5071295;28;20039;-74
2022/03/22 03:31:42;;;;;;;32.85;16.35;;;;;;;;;;5071870;28;20124;-74
2022/03/22 03:34:08;;;;;;;30.65;15.60;;;;;;;;;;5087764;28;20048;-74
2022/03/22 03:36:34;;;;;;;31.27;16.77;;;;;;;;;;5091040;28;20081;-74
2022/03/22 03:39:02;;;;;;;29.13;15.43;;;;;;;;;;5083971;28;20031;-74
2022/03/22 03:47:03;;;;;;;34.47;16.10;;;;;;;;;;5080508;28;20095;-74
2022/03/22 03:49:30;;;;;;;31.70;15.65;;;;;;;;;;5086798;28;20036;-74
2022/03/22 03:51:55;;;;;;;28.15;15.52;;;;;;;;;;5084132;28;20395;-74
2022/03/22 03:54:21;;;;;;;32.05;15.90;;;;;;;;;;5080741;28;20039;-74
2022/03/22 03:56:48;;;;;;;34.50;16.45;;;;;;;;;;5083487;28;20047;-73
2022/03/22 03:59:14;;;;;;;31.02;15.82;;;;;;;;;;5087135;28;20059;-74
2022/03/22 04:01:39;;;;;;;32.55;15.82;;;;;;;;;;5077016;28;20044;-74
2022/03/22 04:04:06;;;;;;;32.70;16.08;;;;;;;;;;5084403;28;20580;-74
2022/03/22 04:06:32;;;;;;;31.83;16.23;;;;;;;;;;5085076;28;20052;-74
2022/03/22 04:08:58;;;;;;;33.55;16.48;;;;;;;;;;5083724;28;20038;-74
2022/03/22 04:11:24;;;;;;;29.52;16.10;;;;;;;;;;5085206;28;20107;-74
2022/03/22 04:13:49;;;;;;;27.45;15.35;;;;;;;;;;5078126;28;20718;-74
2022/03/22 04:16:15;;;;;;;29.42;15.18;;;;;;;;;;5072126;28;20468;-74
2022/03/22 04:18:41;;;;;;;30.35;15.02;;;;;;;;;;5081641;28;20051;-74
2022/03/22 04:21:07;;;;;;;27.63;15.27;;;;;;;;;;5080179;28;20128;-74
2022/03/22 04:23:33;;;;;;;30.83;15.38;;;;;;;;;;5076856;28;20082;-74
2022/03/22 04:26:00;;;;;;;28.90;15.25;;;;;;;;;;5081861;28;20403;-74
2022/03/22 04:33:55;;;;;;;29.10;15.82;;;;;;;;;;5087892;28;20077;-74
2022/03/22 04:36:21;;;;;;;39.35;17.35;;;;;;;;;;5092590;28;20032;-74
2022/03/22 04:38:47;;;;;;;42.40;18.00;;;;;;;;;;5086114;28;20363;-74
2022/03/22 04:41:13;;;;;;;34.95;17.67;;;;;;;;;;5080711;28;20208;-75
2022/03/22 04:43:39;;;;;;;30.98;16.70;;;;;;;;;;5080457;28;20028;-74
2022/03/22 04:46:07;;;;;;;31.27;15.52;;;;;;;;;;5087971;28;20032;-74
2022/03/22 04:48:33;;;;;;;30.60;15.13;;;;;;;;;;5075619;28;20039;-75
2022/03/22 04:56:45;;;;;;;28.67;14.95;;;;;;;;;;5084841;28;20094;-75
2022/03/22 04:59:11;;;;;;;32.30;15.40;;;;;;;;;;5088444;28;20028;-75
2022/03/22 05:01:37;;;;;;;27.10;14.27;;;;;;;;;;5086608;28;20024;-75
2022/03/22 05:04:03;;;;;;;27.70;14.63;;;;;;;;;;5072176;28;20043;-76
2022/03/22 05:06:30;;;;;;;31.08;14.35;;;;;;;;;;5070412;28;20067;-75
2022/03/22 05:08:56;;;;;;;29.40;15.50;;;;;;;;;;5084611;28;20496;-75
2022/03/22 05:11:22;;;;;;;27.85;14.65;;;;;;;;;;5085744;28;20029;-75
2022/03/22 05:13:48;;;;;;;34.42;14.30;;;;;;;;;;5077678;28;20024;-74
2022/03/22 05:16:15;;;;;;;32.28;15.07;;;;;;;;;;5077475;28;20063;-75
2022/03/22 05:18:42;;;;;;;28.25;15.13;;;;;;;;;;5071899;28;20064;-74
2022/03/22 05:21:08;;;;;;;27.05;15.25;;;;;;;;;;5073702;28;20037;-75
2022/03/22 05:23:34;;;;;;;39.03;14.32;;;;;;;;;;5078987;28;20474;-75
2022/03/22 05:26:01;;;;;;;27.30;14.80;;;;;;;;;;5080714;28;20039;-74
2022/03/22 05:28:30;;;;;;;30.83;15.25;;;;;;;;;;5081034;28;20055;-75
2022/03/22 05:30:56;;;;;;;28.48;14.63;;;;;;;;;;5075489;28;20029;-75
2022/03/22 05:33:23;;;;;;;29.10;14.93;;;;;;;;;;5082530;28;20106;-75
2022/03/22 05:35:48;;;;;;;28.98;14.93;;;;;;;;;;5084836;28;20539;-75
2022/03/22 05:38:15;;;;;;;30.80;15.20;;;;;;;;;;5077552;28;20115;-74
2022/03/22 05:40:41;;;;;;;30.13;15.20;;;;;;;;;;5081101;28;20024;-74
2022/03/22 05:43:07;;;;;;;32.00;15.35;;;;;;;;;;5072461;28;20425;-73
2022/03/22 05:45:33;;;;;;;35.00;14.60;;;;;;;;;;5074296;28;20479;-72
2022/03/22 05:48:00;;;;;;;34.35;14.93;;;;;;;;;;5071922;28;20071;-72
2022/03/22 05:50:26;;;;;;;29.60;14.60;;;;;;;;;;5067687;28;20028;-72
2022/03/22 05:52:52;;;;;;;33.60;15.70;;;;;;;;;;5074704;28;20044;-72
2022/03/22 05:55:18;;;;;;;26.70;14.63;;;;;;;;;;5069140;28;20047;-69
2022/03/22 05:57:44;;;;;;;30.60;15.45;;;;;;;;;;5081034;28;20043;-69
2022/03/22 06:00:11;;;;;;;35.22;16.15;;;;;;;;;;5076689;28;20028;-73
2022/03/22 06:02:38;;;;;;;32.20;15.70;;;;;;;;;;5073336;28;20029;-74
2022/03/22 06:05:05;;;;;;;29.73;14.60;;;;;;;;;;5084065;28;20033;-80
2022/03/22 06:07:31;;;;;;;30.20;14.63;;;;;;;;;;5086596;28;20040;-78
2022/03/22 06:09:57;;;;;;;36.53;15.05;;;;;;;;;;5083722;28;20062;-78
2022/03/22 06:12:23;;;;;;;29.48;15.43;;;;;;;;;;5084528;28;20593;-78
2022/03/22 06:15:14;;;;;;;30.48;15.55;;;;;;;;;;5088013;28;20023;-78
2022/03/22 06:17:35;;;;;;;28.25;15.82;;;;;;;;;;5078256;28;20036;-78
2022/03/22 06:20:01;;;;;;;31.58;15.10;;;;;;;;;;5091311;28;20063;-78
2022/03/22 06:22:27;;;;;;;29.58;15.57;;;;;;;;;;5088793;28;20037;-78
2022/03/22 06:24:54;;;;;;;28.25;14.80;;;;;;;;;;5088920;28;20027;-78
2022/03/22 06:27:20;;;;;;;31.05;15.43;;;;;;;;;;5092000;28;20020;-78
2022/03/22 06:29:46;;;;;;;29.85;15.73;;;;;;;;;;5080851;28;20031;-78
2022/03/22 06:32:12;;;;;;;27.83;15.05;;;;;;;;;;5089683;28;20028;-78
2022/03/22 06:34:38;;;;;;;29.73;14.77;;;;;;;;;;5084903;28;20066;-78
2022/03/22 06:37:05;;;;;;;39.08;14.23;;;;;;;;;;5082977;28;20044;-78
2022/03/22 06:39:34;;;;;;;31.13;14.15;;;;;;;;;;5076236;28;20032;-77
2022/03/22 06:42:00;;;;;;;28.67;13.68;;;;;;;;;;5080475;28;20023;-76
2022/03/22 06:44:26;;;;;;;28.08;13.90;;;;;;;;;;5075764;28;20025;-75
2022/03/22 06:46:52;;;;;;;26.70;14.00;;;;;;;;;;5078460;28;20047;-73
2022/03/22 06:49:18;;;;;;;24.85;13.93;;;;;;;;;;5085950;28;20028;-80
2022/03/22 06:51:44;;;;;;;26.17;13.55;;;;;;;;;;5083263;28;20029;-73
2022/03/22 06:54:12;;;;;;;26.15;14.48;;;;;;;;;;5077782;28;20486;-71
2022/03/22 06:56:39;;;;;;;30.38;13.18;;;;;;;;;;5083304;28;20892;-71
2022/03/22 06:59:05;;;;;;;26.98;13.68;;;;;;;;;;5079730;28;20032;-71
2022/03/22 07:01:31;;;;;;;23.27;12.50;;;;;;;;;;5087977;28;20031;-72
2022/03/22 07:04:03;;;;;;;24.05;13.02;;;;;;;;;;5079457;28;20027;-76
2022/03/22 07:06:29;;;;;;;27.88;13.82;;;;;;;;;;5076585;28;20016;-72
2022/03/22 07:08:55;;;;;;;23.88;13.60;;;;;;;;;;5080493;28;20024;-73
2022/03/22 07:14:06;;;;;;;30.40;13.30;;;;;;;;;;5084031;28;20073;-70
2022/03/22 07:16:32;;;;;;;24.27;12.95;;;;;;;;;;5082141;28;20020;-69
2022/03/22 07:18:58;;;;;;;26.77;13.45;;;;;;;;;;5075210;28;20470;-70
2022/03/22 07:21:23;;;;;;;22.80;12.68;;;;;;;;;;5077225;28;20124;-70
2022/03/22 07:23:49;;;;;;;29.77;13.55;;;;;;;;;;5083014;28;20021;-74
2022/03/22 07:26:16;;;;;;;22.05;13.45;;;;;;;;;;5088279;28;20034;-73
2022/03/22 07:28:43;;;;;;;26.30;13.48;;;;;;;;;;5088849;28;20031;-75
2022/03/22 07:31:09;;;;;;;24.55;13.00;;;;;;;;;;5079997;28;20028;-76
2022/03/22 07:33:37;;;;;;;23.20;12.90;;;;;;;;;;5078004;28;20087;-76
2022/03/22 07:36:03;;;;;;;23.13;13.43;;;;;;;;;;5071661;28;20031;-75
2022/03/22 07:38:29;;;;;;;26.42;13.65;;;;;;;;;;5077669;28;20111;-76
2022/03/22 07:40:55;;;;;;;27.90;13.38;;;;;;;;;;5086944;28;20112;-75
2022/03/22 07:43:21;;;;;;;24.25;13.55;;;;;;;;;;5084431;28;20055;-76
2022/03/22 07:45:47;;;;;;;27.73;12.77;;;;;;;;;;5074292;28;20145;-75
2022/03/22 07:48:13;;;;;;;28.23;13.15;;;;;;;;;;5087276;28;20024;-76
2022/03/22 07:53:24;;;;;;;23.88;13.07;;;;;;;;;;5084555;28;20116;-76
2022/03/22 07:55:50;;;;;;;23.70;13.13;;;;;;;;;;5080901;28;20319;-76
2022/03/22 07:58:15;;;;;;;20.08;12.60;;;;;;;;;;5086168;28;20480;-76
2022/03/22 08:00:42;;;;;;;26.20;13.25;;;;;;;;;;5084218;28;20022;-75
2022/03/22 08:03:12;;;;;;;28.13;13.75;;;;;;;;;;5079570;28;20145;-74
2022/03/22 08:05:39;;;;;;;30.42;13.15;;;;;;;;;;5075364;28;20435;-74
2022/03/22 08:08:05;;;;;;;25.73;13.55;;;;;;;;;;5074406;28;20048;-76
2022/03/22 08:10:32;;;;;;;24.40;13.68;;;;;;;;;;5085624;28;20714;-75
2022/03/22 08:12:58;;;;;;;29.90;14.38;;;;;;;;;;5074609;28;20445;-76
2022/03/22 08:15:24;;;;;;;24.20;13.02;;;;;;;;;;5076628;28;20024;-75
2022/03/22 08:17:50;;;;;;;28.35;13.88;;;;;;;;;;5073553;28;20021;-75
2022/03/22 08:20:16;;;;;;;26.05;13.07;;;;;;;;;;5076657;28;20391;-75
2022/03/22 08:22:52;;;;;;;26.73;13.82;;;;;;;;;;5075698;28;20111;-75
2022/03/22 08:25:26;;;;;;;27.15;14.15;;;;;;;;;;5066904;28;20065;-75
2022/03/22 08:27:52;;;;;;;21.85;13.30;;;;;;;;;;5072717;28;20021;-75
2022/03/22 08:30:22;;;;;;;29.25;14.10;;;;;;;;;;5071734;28;20123;-75
2022/03/22 08:32:51;;;;;;;29.50;13.35;;;;;;;;;;5083135;28;20028;-75
2022/03/22 08:35:18;;;;;;;25.17;13.65;;;;;;;;;;5079455;28;20028;-75
2022/03/22 08:37:44;;;;;;;22.77;12.63;;;;;;;;;;5071433;28;20024;-75
2022/03/22 08:40:10;;;;;;;24.35;13.10;;;;;;;;;;5080457;28;20573;-75
2022/03/22 08:42:41;;;;;;;24.23;13.63;;;;;;;;;;5081313;28;20444;-75
2022/03/22 08:45:07;;;;;;;20.88;13.02;;;;;;;;;;5080934;28;20490;-75
2022/03/22 08:47:35;;;;;;;18.58;12.10;;;;;;;;;;5080828;28;20028;-75
2022/03/22 08:50:01;;;;;;;25.30;12.07;;;;;;;;;;5074618;28;20024;-74
2022/03/22 08:52:27;;;;;;;25.35;12.88;;;;;;;;;;5065047;28;20033;-74
2022/03/22 08:54:53;;;;;;;22.95;12.68;;;;;;;;;;5077095;28;20157;-73
2022/03/22 08:57:19;;;;;;;18.05;11.75;;;;;;;;;;5076864;28;20024;-74
2022/03/22 08:59:45;;;;;;;27.17;11.38;;;;;;;;;;5083877;28;20546;-72
2022/03/22 09:02:11;;;;;;;21.98;11.95;;;;;;;;;;5077705;28;20510;-72
2022/03/22 09:07:22;;;;;;;22.50;12.05;;;;;;;;;;5069462;28;20044;-71
2022/03/22 09:09:48;;;;;;;19.13;10.88;;;;;;;;;;5083617;28;20020;-73
2022/03/22 09:12:14;;;;;;;21.80;11.68;;;;;;;;;;5076466;28;20107;-72
2022/03/22 09:14:40;;;;;;;19.60;11.75;;;;;;;;;;5067769;28;20032;-73
2022/03/22 09:17:07;;;;;;;20.63;11.98;;;;;;;;;;5079301;28;20225;-73
2022/03/22 09:19:36;;;;;;;21.83;11.55;;;;;;;;;;5068655;28;20035;-73
2022/03/22 09:22:03;;;;;;;23.15;11.07;;;;;;;;;;5072221;28;20025;-73
2022/03/22 09:24:29;;;;;;;19.60;10.77;;;;;;;;;;5069036;28;20032;-73
2022/03/22 09:26:55;;;;;;;15.02;10.18;;;;;;;;;;5076039;28;20026;-73
2022/03/22 09:29:21;;;;;;;16.73;9.88;;;;;;;;;;5071935;28;20509;-73
2022/03/22 09:31:47;;;;;;;18.88;10.40;;;;;;;;;;5070300;28;20655;-74
2022/03/22 09:34:13;;;;;;;20.17;10.38;;;;;;;;;;5068822;28;20036;-73
2022/03/22 09:36:39;;;;;;;16.35;10.80;;;;;;;;;;5074736;28;20043;-74
2022/03/22 09:39:08;;;;;;;15.68;10.20;;;;;;;;;;5084138;28;20111;-74
2022/03/22 09:41:35;;;;;;;15.75;9.90;;;;;;;;;;5085343;28;20025;-72
2022/03/22 09:44:02;;;;;;;20.67;10.35;;;;;;;;;;5077967;28;20024;-71
2022/03/22 09:46:28;;;;;;;16.08;10.00;;;;;;;;;;5082127;28;20021;-70
2022/03/22 09:48:56;;;;;;;19.42;10.07;;;;;;;;;;5082696;28;20058;-71
2022/03/22 09:54:07;;;;;;;24.58;10.55;;;;;;;;;;5070679;28;20043;-70
2022/03/22 09:56:36;;;;;;;17.20;10.20;;;;;;;;;;5073622;28;20052;-70
2022/03/22 09:59:06;;;;;;;18.48;9.98;;;;;;;;;;5074779;28;20059;-71
2022/03/22 10:01:32;;;;;;;15.82;9.48;;;;;;;;;;5081309;28;20028;-71
2022/03/22 10:04:07;;;;;;;13.95;9.63;;;;;;;;;;5084556;28;20035;-69
2022/03/22 10:06:33;;;;;;;19.40;10.02;;;;;;;;;;5073093;28;20012;-70
2022/03/22 10:08:59;;;;;;;17.70;9.88;;;;;;;;;;5085851;28;20038;-71
2022/03/22 10:11:39;;;;;;;18.90;10.13;;;;;;;;;;5080966;28;20449;-71
2022/03/22 10:14:05;;;;;;;18.58;9.70;;;;;;;;;;5081672;28;20081;-71
2022/03/22 10:19:56;;;;;;;16.27;10.05;;;;;;;;;;5027315;28;20852;-70
2022/03/22 10:22:23;;;;;;;16.50;10.30;;;;;;;;;;5038847;28;20051;-70
2022/03/22 10:24:50;;;;;;;15.35;10.15;;;;;;;;;;5053237;28;20037;-70
2022/03/22 10:27:23;;;;;;;16.17;10.48;;;;;;;;;;5073981;28;20060;-70
2022/03/22 10:29:52;;;;;;;14.73;9.60;;;;;;;;;;5071192;28;20021;-69
2022/03/22 10:32:19;;;;;;;17.35;9.43;;;;;;;;;;5085548;28;20622;-70
2022/03/22 10:34:48;;;;;;;17.30;9.07;;;;;;;;;;5076100;28;20051;-71
2022/03/22 10:37:24;;;;;;;16.65;9.45;;;;;;;;;;5088067;28;20429;-70
2022/03/22 10:39:51;;;;;;;15.55;10.10;;;;;;;;;;5074053;28;20024;-69
2022/03/22 10:42:18;;;;;;;14.48;9.30;;;;;;;;;;5088913;28;20024;-70
2022/03/22 10:44:44;;;;;;;17.98;9.13;;;;;;;;;;5076886;28;20044;-70
2022/03/22 10:47:24;;;;;;;15.57;9.77;;;;;;;;;;5068458;28;20024;-70
2022/03/22 10:50:00;;;;;;;15.52;9.70;;;;;;;;;;5069337;28;20028;-70
2022/03/22 10:52:29;;;;;;;15.20;9.63;;;;;;;;;;5083267;28;20059;-69
2022/03/22 11:01:16;;;;;;;15.93;10.02;;;;;;;;;;4971069;28;20045;-70
2022/03/22 11:03:45;;;;;;;14.85;9.82;;;;;;;;;;5065443;28;20043;-72
2022/03/22 11:06:11;;;;;;;23.52;9.57;;;;;;;;;;5072307;28;20028;-70
2022/03/22 11:08:41;;;;;;;13.88;9.50;;;;;;;;;;5076555;28;20051;-69
2022/03/22 11:11:07;;;;;;;12.05;8.80;;;;;;;;;;5077595;28;20123;-72
2022/03/22 11:16:30;;;;;;;17.67;8.85;;;;;;;;;;5021455;28;20041;-72
2022/03/22 11:18:59;;;;;;;14.15;9.50;;;;;;;;;;5068629;28;20035;-73
2022/03/22 11:21:25;;;;;;;16.75;9.05;;;;;;;;;;5072016;28;20090;-73
2022/03/22 11:23:52;;;;;;;12.38;8.68;;;;;;;;;;5082091;28;20025;-74
2022/03/22 11:26:23;;;;;;;12.60;8.35;;;;;;;;;;5063459;28;20036;-73
2022/03/22 11:28:50;;;;;;;17.63;8.75;;;;;;;;;;5079198;28;20024;-73
2022/03/22 11:31:19;;;;;;;11.73;8.68;;;;;;;;;;5077575;28;20093;-79
2022/03/22 11:36:39;;;;;;;14.48;8.93;;;;;;;;;;5071607;28;20089;-78
2022/03/22 11:39:05;;;;;;;11.82;8.40;;;;;;;;;;5087771;28;20024;-78
2022/03/22 11:44:22;;;;;;;14.25;8.55;;;;;;;;;;5079067;28;20408;-79
2022/03/22 11:47:00;;;;;;;14.95;8.93;;;;;;;;;;5080200;28;20020;-79
2022/03/22 11:49:26;;;;;;;12.40;8.25;;;;;;;;;;5085332;28;20466;-80
2022/03/22 11:51:52;;;;;;;12.15;8.25;;;;;;;;;;5076546;28;20167;-80
2022/03/22 11:54:46;;;;;;;13.52;7.65;;;;;;;;;;5091680;28;20047;-80
2022/03/22 11:57:16;;;;;;;12.65;7.82;;;;;;;;;;5076567;28;20109;-80
2022/03/22 11:59:43;;;;;;;11.85;7.93;;;;;;;;;;5077915;28;20040;-82
2022/03/22 12:02:15;;;;;;;14.52;7.72;;;;;;;;;;5074250;28;20545;-80
2022/03/22 12:04:42;;;;;;;12.63;7.97;;;;;;;;;;5083049;28;20047;-80
2022/03/22 12:07:10;;;;;;;11.85;8.55;;;;;;;;;;5078658;28;20037;-80
2022/03/22 12:09:40;;;;;;;13.93;8.27;;;;;;;;;;5081585;28;20389;-80
2022/03/22 12:12:06;;;;;;;17.00;8.40;;;;;;;;;;5079837;28;20036;-80
2022/03/22 12:14:34;;;;;;;11.18;7.90;;;;;;;;;;5071883;28;20048;-80
2022/03/22 12:17:00;;;;;;;11.35;7.40;;;;;;;;;;5068477;28;20558;-80
2022/03/22 12:19:31;;;;;;;11.05;8.07;;;;;;;;;;5079185;28;20062;-73
2022/03/22 12:21:58;;;;;;;10.32;7.65;;;;;;;;;;5075919;28;20023;-72
2022/03/22 12:24:24;;;;;;;10.32;7.75;;;;;;;;;;5075635;28;20024;-73
2022/03/22 12:26:51;;;;;;;14.52;7.38;;;;;;;;;;5071549;28;20028;-72
2022/03/22 12:29:17;;;;;;;13.30;7.90;;;;;;;;;;5064794;28;20579;-72
2022/03/22 12:31:47;;;;;;;9.75;7.43;;;;;;;;;;5070116;28;20063;-72
2022/03/22 12:34:13;;;;;;;13.73;7.45;;;;;;;;;;5080452;28;20032;-72
2022/03/22 12:36:39;;;;;;;14.05;7.82;;;;;;;;;;5073655;28;20490;-73
2022/03/22 12:39:05;;;;;;;9.60;6.95;;;;;;;;;;5069658;28;20028;-72
2022/03/22 12:41:31;;;;;;;11.65;7.53;;;;;;;;;;5070839;28;20713;-72
2022/03/22 12:43:57;;;;;;;10.63;7.50;;;;;;;;;;5083926;28;20444;-72
2022/03/22 12:46:23;;;;;;;13.45;7.53;;;;;;;;;;5083336;28;20499;-72
2022/03/22 12:48:51;;;;;;;10.05;6.70;;;;;;;;;;5084065;28;20028;-72
2022/03/22 12:51:17;;;;;;;9.88;6.35;;;;;;;;;;5083917;28;20547;-72
2022/03/22 12:53:43;;;;;;;8.15;6.57;;;;;;;;;;5079019;28;20106;-73
2022/03/22 12:56:16;;;;;;;8.27;6.63;;;;;;;;;;5079568;28;20056;-73
2022/03/22 12:58:42;;;;;;;13.52;7.40;;;;;;;;;;5072068;28;20119;-72
2022/03/22 13:01:08;;;;;;;10.98;6.70;;;;;;;;;;5079840;28;20554;-73
2022/03/22 13:03:36;;;;;;;8.77;6.07;;;;;;;;;;5079433;28;20019;-72
2022/03/22 13:06:02;;;;;;;9.85;6.07;;;;;;;;;;5071305;28;20043;-72
2022/03/22 13:11:26;;;;;;;7.57;6.18;;;;;;;;;;5076462;28;20116;-71
2022/03/22 13:11:27;;;;;;;8.52;6.30;;;;;;;;;;5080013;28;20086;-69
2022/03/22 13:16:39;;;;;;;7.93;6.53;;;;;;;;;;5079664;28;20093;-70
2022/03/22 13:19:09;;;;;;;10.90;6.68;;;;;;;;;;5067670;28;20455;-70
2022/03/22 13:21:36;;;;;;;10.63;5.95;;;;;;;;;;5078656;28;20479;-71
2022/03/22 13:24:08;;;;;;;9.65;6.50;;;;;;;;;;5085204;28;20043;-75
2022/03/22 13:26:34;;;;;;;10.20;7.00;;;;;;;;;;5080145;28;20054;-72
2022/03/22 13:29:12;;;;;;;8.85;5.90;;;;;;;;;;5081633;28;20020;-71
2022/03/22 13:31:38;;;;;;;9.05;5.90;;;;;;;;;;5078926;28;20397;-75
2022/03/22 13:34:04;;;;;;;8.07;5.95;;;;;;;;;;5075549;28;20092;-73
2022/03/22 13:36:30;;;;;;;12.90;6.00;;;;;;;;;;5071191;28;20542;-72
2022/03/22 13:38:58;;;;;;;9.88;5.90;;;;;;;;;;5078026;28;20622;-71
2022/03/22 13:41:29;;;;;;;9.00;5.57;;;;;;;;;;5074284;28;20115;-72
2022/03/22 13:43:55;;;;;;;7.32;5.45;;;;;;;;;;5076952;28;20028;-72
2022/03/22 13:46:21;;;;;;;9.57;5.82;;;;;;;;;;5076819;28;20073;-72
2022/03/22 13:48:49;;;;;;;12.60;6.00;;;;;;;;;;5081258;28;20039;-72
2022/03/22 13:51:22;;;;;;;6.60;5.63;;;;;;;;;;5061607;28;20454;-72
2022/03/22 13:53:48;;;;;;;8.90;5.70;;;;;;;;;;5081604;28;20044;-72
2022/03/22 13:56:14;;;;;;;9.35;5.97;;;;;;;;;;5077186;28;20545;-72
2022/03/22 13:58:42;;;;;;;10.27;5.72;;;;;;;;;;5084854;28;20032;-73
2022/03/22 14:01:13;;;;;;;7.90;6.25;;;;;;;;;;5071704;28;20029;-73
2022/03/22 14:03:39;;;;;;;12.93;9.50;;;;;;;;;;5083129;28;20093;-73
2022/03/22 14:06:05;;;;;;;6.82;5.25;;;;;;;;;;5072626;28;20103;-73
2022/03/22 14:08:31;;;;;;;7.18;5.82;;;;;;;;;;5081541;28;20459;-73
2022/03/22 14:10:58;;;;;;;8.07;5.88;;;;;;;;;;5083362;28;20107;-73
2022/03/22 14:13:25;;;;;;;8.85;5.97;;;;;;;;;;5066714;28;20032;-72
2022/03/22 14:15:51;;;;;;;11.07;5.88;;;;;;;;;;5083331;28;20024;-72
2022/03/22 14:18:23;;;;;;;7.43;5.80;;;;;;;;;;5079607;28;20382;-73
2022/03/22 14:20:50;;;;;;;6.57;5.78;;;;;;;;;;5072951;28;20024;-73
2022/03/22 14:23:16;;;;;;;9.02;6.75;;;;;;;;;;5069934;28;20058;-73
2022/03/22 14:25:42;;;;;;;7.50;6.45;;;;;;;;;;5067269;28;20240;-73
2022/03/22 14:28:08;;;;;;;9.23;6.53;;;;;;;;;;5075652;28;20553;-73
2022/03/22 14:30:35;;;;;;;8.70;6.05;;;;;;;;;;5082068;28;20032;-73
2022/03/22 14:33:05;;;;;;;15.40;6.75;;;;;;;;;;5072297;28;20021;-73
2022/03/22 14:35:47;;;;;;;9.88;6.72;;;;;;;;;;5082548;28;20032;-73
2022/03/22 14:38:17;;;;;;;10.00;6.53;;;;;;;;;;5082346;28;20424;-73
2022/03/22 14:40:43;;;;;;;8.52;6.90;;;;;;;;;;5085258;28;20031;-73
2022/03/22 14:43:10;;;;;;;10.40;7.43;;;;;;;;;;5077869;28;20031;-73
2022/03/22 14:45:36;;;;;;;8.80;6.60;;;;;;;;;;5083918;28;20492;-73
2022/03/22 14:48:03;;;;;;;8.02;6.95;;;;;;;;;;5089075;28;20027;-73
2022/03/22 14:50:30;;;;;;;9.75;6.85;;;;;;;;;;5077200;28;20471;-73
2022/03/22 14:55:41;;;;;;;113.10;15.40;;;;;;;;;;5080558;28;20089;-73
2022/03/22 15:00:56;;;;;;;9.52;7.32;;;;;;;;;;5084072;28;20120;-73
2022/03/22 15:03:26;;;;;;;12.95;6.72;;;;;;;;;;5080174;28;20032;-73
2022/03/22 15:05:52;;;;;;;24.50;7.80;;;;;;;;;;5084056;28;20449;-73
2022/03/22 15:08:20;;;;;;;15.95;11.13;;;;;;;;;;5078437;28;20048;-73
2022/03/22 15:10:47;;;;;;;41.65;12.32;;;;;;;;;;5079751;28;20063;-74
2022/03/22 15:13:13;;;;;;;10.23;8.23;;;;;;;;;;5080901;28;20028;-73
2022/03/22 15:15:40;;;;;;;7.82;7.03;;;;;;;;;;5076505;28;20052;-73
2022/03/22 15:18:08;;;;;;;22.08;9.85;;;;;;;;;;5078387;28;20020;-73
2022/03/22 15:20:37;;;;;;;47.55;11.60;;;;;;;;;;5075347;28;20024;-73
2022/03/22 15:23:04;;;;;;;20.70;8.38;;;;;;;;;;5072794;28;20379;-73